createdAt,value
2018-04-07T00:00:04.473Z,0.00
2018-04-07T00:01:04.329Z,0.00
2018-04-07T00:02:04.342Z,0.00
2018-04-07T00:03:04.309Z,0.00
2018-04-07T00:04:04.677Z,0.00
2018-04-07T00:05:04.374Z,0.00
2018-04-07T00:06:04.235Z,0.00
2018-04-07T00:07:06.101Z,0.00
2018-04-07T00:08:04.269Z,0.00
2018-04-07T00:09:04.681Z,0.00
2018-04-07T00:10:04.197Z,0.00
2018-04-07T00:11:04.220Z,0.00
2018-04-07T00:12:04.210Z,0.00
2018-04-07T00:13:05.151Z,0.00
2018-04-07T00:14:04.156Z,0.00
2018-04-07T00:15:04.308Z,0.00
2018-04-07T00:16:05.308Z,0.00
2018-04-07T00:17:06.990Z,0.00
2018-04-07T00:18:05.015Z,0.00
2018-04-07T00:19:04.991Z,0.00
2018-04-07T00:20:06.144Z,0.00
2018-04-07T00:21:04.250Z,0.00
2018-04-07T00:22:04.802Z,0.00
2018-04-07T00:23:05.766Z,0.00
2018-04-07T00:24:03.983Z,0.00
2018-04-07T00:25:03.997Z,0.00
2018-04-07T00:26:05.040Z,0.00
2018-04-07T00:27:04.481Z,0.00
2018-04-07T00:28:04.014Z,0.00
2018-04-07T00:29:04.004Z,0.00
2018-04-07T00:30:04.116Z,0.00
2018-04-07T00:31:03.976Z,0.00
2018-04-07T00:32:08.456Z,0.00
2018-04-07T00:33:04.233Z,0.00
2018-04-07T00:34:04.450Z,0.00
2018-04-07T00:35:06.585Z,0.00
2018-04-07T00:36:04.071Z,0.00
2018-04-07T00:37:03.900Z,0.00
2018-04-07T00:38:05.520Z,0.00
2018-04-07T00:39:04.096Z,0.00
2018-04-07T00:40:04.482Z,0.00
2018-04-07T00:41:04.869Z,0.00
2018-04-07T00:42:03.744Z,0.00
2018-04-07T00:43:04.489Z,0.00
2018-04-07T00:44:05.661Z,0.00
2018-04-07T00:45:04.135Z,0.00
2018-04-07T00:46:03.665Z,0.00
2018-04-07T00:47:03.685Z,0.00
2018-04-07T00:48:18.473Z,0.00
2018-04-07T00:49:03.793Z,0.00
2018-04-07T00:50:04.709Z,0.00
2018-04-07T00:51:03.652Z,0.00
2018-04-07T00:52:04.724Z,0.00
2018-04-07T00:53:03.627Z,0.00
2018-04-07T00:54:03.977Z,0.00
2018-04-07T00:55:05.402Z,0.00
2018-04-07T00:56:05.531Z,0.00
2018-04-07T00:57:04.817Z,0.00
2018-04-07T00:58:03.527Z,0.00
2018-04-07T00:59:03.549Z,0.00
2018-04-07T01:00:05.481Z,0.00
2018-04-07T01:01:03.569Z,0.00
2018-04-07T01:02:03.490Z,0.00
2018-04-07T01:03:03.522Z,0.00
2018-04-07T01:04:04.083Z,0.00
2018-04-07T01:05:05.152Z,0.00
2018-04-07T01:06:05.121Z,0.00
2018-04-07T01:07:03.489Z,0.00
2018-04-07T01:08:08.095Z,0.00
2018-04-07T01:09:03.482Z,0.00
2018-04-07T01:10:03.472Z,0.00
2018-04-07T01:11:04.125Z,0.00
2018-04-07T01:12:05.298Z,0.00
2018-04-07T01:13:24.386Z,0.00
2018-04-07T01:14:03.442Z,0.00
2018-04-07T01:15:03.341Z,0.00
2018-04-07T01:16:04.047Z,0.00
2018-04-07T01:17:03.253Z,0.00
2018-04-07T01:18:03.876Z,0.00
2018-04-07T01:19:03.223Z,0.00
2018-04-07T01:20:03.381Z,0.00
2018-04-07T01:21:03.201Z,0.00
2018-04-07T01:22:03.465Z,0.00
2018-04-07T01:23:03.254Z,0.00
2018-04-07T01:24:03.776Z,0.00
2018-04-07T01:25:03.125Z,0.00
2018-04-07T01:26:03.250Z,0.00
2018-04-07T01:27:03.093Z,0.00
2018-04-07T01:28:03.237Z,0.00
2018-04-07T01:29:03.167Z,0.00
2018-04-07T01:30:03.299Z,0.00
2018-04-07T01:31:04.540Z,0.00
2018-04-07T01:32:03.091Z,0.00
2018-04-07T01:33:03.148Z,0.00
2018-04-07T01:34:03.704Z,0.00
2018-04-07T01:35:03.001Z,0.00
2018-04-07T01:36:03.007Z,0.00
2018-04-07T01:37:02.984Z,0.00
2018-04-07T01:38:02.933Z,0.00
2018-04-07T01:39:02.915Z,0.00
2018-04-07T01:40:03.533Z,0.00
2018-04-07T01:41:03.042Z,0.00
2018-04-07T01:42:02.929Z,0.00
2018-04-07T01:43:05.978Z,0.00
2018-04-07T01:44:02.964Z,0.00
2018-04-07T01:45:02.989Z,0.00
2018-04-07T01:46:03.533Z,0.00
2018-04-07T01:47:02.824Z,0.00
2018-04-07T01:48:02.963Z,0.00
2018-04-07T04:34:37.398Z,28.00
2018-04-07T04:35:37.357Z,32.00
2018-04-07T04:36:37.344Z,36.00
2018-04-07T04:37:37.308Z,40.00
2018-04-07T04:38:37.297Z,48.00
2018-04-07T04:39:37.284Z,52.00
2018-04-07T04:40:37.272Z,64.00
2018-04-07T04:41:37.264Z,64.00
2018-04-07T04:42:37.240Z,76.00
2018-04-07T04:43:37.209Z,84.00
2018-04-07T04:44:37.217Z,92.00
2018-04-07T04:45:37.189Z,104.00
2018-04-07T04:46:37.217Z,112.00
2018-04-07T04:47:37.147Z,120.00
2018-04-07T04:48:37.124Z,136.00
2018-04-07T04:49:37.126Z,148.00
2018-04-07T04:50:37.099Z,168.00
2018-04-07T04:51:37.104Z,184.00
2018-04-07T04:52:37.104Z,200.00
2018-04-07T04:53:37.066Z,224.00
2018-04-07T04:54:37.035Z,240.00
2018-04-07T04:55:37.015Z,264.00
2018-04-07T04:56:37.012Z,288.00
2018-04-07T04:57:36.993Z,308.00
2018-04-07T04:58:36.993Z,336.00
2018-04-07T04:59:37.017Z,356.00
2018-04-07T05:00:36.947Z,384.00
2018-04-07T05:01:36.926Z,408.00
2018-04-07T05:02:36.934Z,436.00
2018-04-07T05:03:36.916Z,468.00
2018-04-07T05:04:36.890Z,500.00
2018-04-07T05:05:36.919Z,532.00
2018-04-07T05:06:36.854Z,568.00
2018-04-07T05:07:36.861Z,600.00
2018-04-07T05:08:36.826Z,632.00
2018-04-07T05:09:36.816Z,664.00
2018-04-07T05:10:37.153Z,700.00
2018-04-07T05:11:36.771Z,732.00
2018-04-07T05:12:36.769Z,768.00
2018-04-07T05:13:36.741Z,800.00
2018-04-07T05:14:36.732Z,832.00
2018-04-07T05:15:36.704Z,864.00
2018-04-07T05:16:36.707Z,896.00
2018-04-07T05:17:36.688Z,928.00
2018-04-07T05:18:36.671Z,956.00
2018-04-07T05:19:36.662Z,984.00
2018-04-07T05:20:36.658Z,1012.00
2018-04-07T05:21:36.674Z,1040.00
2018-04-07T05:22:36.596Z,1064.00
2018-04-07T05:23:36.611Z,1092.00
2018-04-07T05:24:36.575Z,1116.00
2018-04-07T05:25:36.556Z,1140.00
2018-04-07T05:26:36.538Z,1168.00
2018-04-07T05:27:36.532Z,1192.00
2018-04-07T05:28:36.564Z,1220.00
2018-04-07T05:29:36.500Z,1248.00
2018-04-07T05:30:36.476Z,1272.00
2018-04-07T05:31:36.479Z,1300.00
2018-04-07T05:32:36.446Z,1336.00
2018-04-07T05:33:36.447Z,1364.00
2018-04-07T05:34:36.428Z,1396.00
2018-04-07T05:35:36.427Z,1436.00
2018-04-07T05:36:36.387Z,1468.00
2018-04-07T05:37:36.368Z,1504.00
2018-04-07T05:38:36.367Z,1532.00
2018-04-07T05:39:36.381Z,1564.00
2018-04-07T05:40:36.321Z,1596.00
2018-04-07T05:41:36.677Z,1620.00
2018-04-07T05:42:36.310Z,1660.00
2018-04-07T05:43:36.290Z,1692.00
2018-04-07T05:44:36.294Z,1736.00
2018-04-07T05:45:36.473Z,1784.00
2018-04-07T05:46:36.229Z,1820.00
2018-04-07T05:47:36.255Z,1852.00
2018-04-07T05:48:36.211Z,1880.00
2018-04-07T05:49:36.207Z,1908.00
2018-04-07T05:50:36.192Z,1928.00
2018-04-07T05:51:36.179Z,1984.00
2018-04-07T05:52:36.183Z,2036.00
2018-04-07T05:53:36.127Z,2076.00
2018-04-07T05:54:36.130Z,2120.00
2018-04-07T05:55:36.096Z,2156.00
2018-04-07T05:56:36.104Z,2192.00
2018-04-07T05:57:36.120Z,2224.00
2018-04-07T05:58:36.076Z,2248.00
2018-04-07T05:59:36.037Z,2280.00
2018-04-07T06:00:36.020Z,2312.00
2018-04-07T06:01:36.024Z,2340.00
2018-04-07T06:02:35.989Z,2372.00
2018-04-07T06:03:36.277Z,2400.00
2018-04-07T06:04:35.977Z,2436.00
2018-04-07T06:05:35.952Z,2460.00
2018-04-07T06:06:35.938Z,2472.00
2018-04-07T06:07:35.926Z,2504.00
2018-04-07T06:08:35.898Z,2492.00
2018-04-07T06:09:35.923Z,2500.00
2018-04-07T06:10:35.875Z,2544.00
2018-04-07T06:11:35.857Z,2588.00
2018-04-07T06:12:35.849Z,2588.00
2018-04-07T06:13:35.838Z,2616.00
2018-04-07T06:14:35.823Z,2636.00
2018-04-07T06:15:36.116Z,2660.00
2018-04-07T06:16:35.783Z,2684.00
2018-04-07T06:17:36.126Z,2724.00
2018-04-07T06:18:35.779Z,2772.00
2018-04-07T06:19:35.758Z,2812.00
2018-04-07T06:20:35.724Z,2848.00
2018-04-07T06:21:35.735Z,2848.00
2018-04-07T06:22:35.704Z,2860.00
2018-04-07T06:23:35.717Z,2884.00
2018-04-07T06:24:35.667Z,2896.00
2018-04-07T06:25:35.665Z,2912.00
2018-04-07T06:26:35.649Z,2920.00
2018-04-07T06:27:35.630Z,2932.00
2018-04-07T06:28:35.647Z,2960.00
2018-04-07T06:29:35.611Z,2980.00
2018-04-07T06:30:35.616Z,2996.00
2018-04-07T06:31:35.577Z,3020.00
2018-04-07T06:32:35.578Z,3028.00
2018-04-07T06:33:35.555Z,3036.00
2018-04-07T06:34:35.539Z,3072.00
2018-04-07T06:35:35.565Z,3088.00
2018-04-07T06:36:35.493Z,3084.00
2018-04-07T06:37:35.489Z,3092.00
2018-04-07T06:38:35.463Z,3072.00
2018-04-07T06:39:35.538Z,3112.00
2018-04-07T06:40:35.451Z,3124.00
2018-04-07T06:41:35.453Z,3124.00
2018-04-07T06:42:35.407Z,3112.00
2018-04-07T06:43:35.421Z,3152.00
2018-04-07T06:44:35.399Z,3176.00
2018-04-07T06:45:35.736Z,3204.00
2018-04-07T06:46:35.384Z,3216.00
2018-04-07T06:47:35.351Z,3220.00
2018-04-07T06:48:35.342Z,3256.00
2018-04-07T06:49:35.394Z,3292.00
2018-04-07T06:50:35.315Z,3324.00
2018-04-07T06:51:35.301Z,3340.00
2018-04-07T06:52:35.275Z,3352.00
2018-04-07T06:53:35.285Z,3360.00
2018-04-07T06:54:35.247Z,3372.00
2018-04-07T06:55:35.283Z,3348.00
2018-04-07T06:56:35.241Z,3304.00
2018-04-07T06:57:35.217Z,3328.00
2018-04-07T06:58:35.192Z,3372.00
2018-04-07T06:59:35.190Z,3364.00
2018-04-07T07:00:35.185Z,3376.00
2018-04-07T07:01:35.167Z,3400.00
2018-04-07T07:02:35.166Z,3436.00
2018-04-07T07:03:35.145Z,3404.00
2018-04-07T07:04:35.115Z,3400.00
2018-04-07T07:05:35.102Z,3388.00
2018-04-07T07:06:35.136Z,3444.00
2018-04-07T07:07:35.064Z,3444.00
2018-04-07T07:08:35.063Z,3504.00
2018-04-07T07:09:35.059Z,3524.00
2018-04-07T07:10:35.028Z,3528.00
2018-04-07T07:11:35.028Z,3516.00
2018-04-07T07:12:35.042Z,3532.00
2018-04-07T07:13:35.004Z,3464.00
2018-04-07T07:14:34.989Z,3440.00
2018-04-07T07:15:34.975Z,3492.00
2018-04-07T07:16:34.976Z,3496.00
2018-04-07T07:17:35.294Z,3500.00
2018-04-07T07:18:34.943Z,3468.00
2018-04-07T07:19:34.926Z,3416.00
2018-04-07T07:20:34.906Z,3388.00
2018-04-07T07:21:34.888Z,3432.00
2018-04-07T07:22:34.877Z,3472.00
2018-04-07T07:23:34.887Z,3516.00
2018-04-07T07:24:34.863Z,3576.00
2018-04-07T07:25:34.831Z,3648.00
2018-04-07T07:26:34.848Z,3688.00
2018-04-07T07:27:34.825Z,3764.00
2018-04-07T07:28:34.789Z,3824.00
2018-04-07T07:29:34.796Z,3836.00
2018-04-07T07:30:34.776Z,3844.00
2018-04-07T07:31:34.831Z,3876.00
2018-04-07T07:32:34.754Z,3932.00
2018-04-07T07:33:34.741Z,3976.00
2018-04-07T07:34:34.721Z,4016.00
2018-04-07T07:35:34.734Z,3988.00
2018-04-07T07:36:34.709Z,3976.00
2018-04-07T07:37:34.730Z,3956.00
2018-04-07T07:38:34.675Z,3980.00
2018-04-07T07:39:34.662Z,4044.00
2018-04-07T07:40:34.653Z,4104.00
2018-04-07T07:41:34.635Z,4092.00
2018-04-07T07:42:34.630Z,4004.00
2018-04-07T07:43:34.632Z,4140.00
2018-04-07T07:44:34.589Z,4188.00
2018-04-07T07:45:34.602Z,4212.00
2018-04-07T07:46:34.563Z,4244.00
2018-04-07T07:47:34.564Z,4272.00
2018-04-07T07:48:34.591Z,4296.00
2018-04-07T07:49:34.534Z,4340.00
2018-04-07T07:50:34.532Z,4364.00
2018-04-07T07:51:34.529Z,4340.00
2018-04-07T07:52:34.504Z,4388.00
2018-04-07T07:53:34.487Z,4400.00
2018-04-07T07:54:34.504Z,4400.00
2018-04-07T07:55:34.481Z,4432.00
2018-04-07T07:56:34.471Z,4436.00
2018-04-07T07:57:34.445Z,4488.00
2018-04-07T07:58:34.428Z,4568.00
2018-04-07T07:59:34.446Z,4604.00
2018-04-07T08:00:34.426Z,4680.00
2018-04-07T08:01:34.455Z,4716.00
2018-04-07T08:02:34.389Z,4664.00
2018-04-07T08:03:34.369Z,4680.00
2018-04-07T08:04:34.364Z,4632.00
2018-04-07T08:05:34.356Z,4764.00
2018-04-07T08:06:34.338Z,4840.00
2018-04-07T08:07:34.356Z,4840.00
2018-04-07T08:08:34.333Z,4884.00
2018-04-07T08:09:34.352Z,5004.00
2018-04-07T08:10:34.280Z,5088.00
2018-04-07T08:11:34.267Z,5128.00
2018-04-07T08:12:34.266Z,5164.00
2018-04-07T08:13:34.258Z,5196.00
2018-04-07T08:14:34.262Z,5272.00
2018-04-07T08:15:34.245Z,5312.00
2018-04-07T08:16:34.213Z,5380.00
2018-04-07T08:17:34.214Z,5448.00
2018-04-07T08:18:34.923Z,5500.00
2018-04-07T08:19:34.206Z,5576.00
2018-04-07T08:20:34.207Z,5692.00
2018-04-07T08:21:34.218Z,5812.00
2018-04-07T08:22:34.187Z,5924.00
2018-04-07T08:23:34.161Z,5988.00
2018-04-07T08:24:34.131Z,6068.00
2018-04-07T08:25:34.113Z,6128.00
2018-04-07T08:26:34.174Z,6160.00
2018-04-07T08:27:34.117Z,6220.00
2018-04-07T08:28:34.105Z,6316.00
2018-04-07T08:29:34.104Z,6348.00
2018-04-07T08:30:34.105Z,6428.00
2018-04-07T08:31:34.065Z,6584.00
2018-04-07T08:32:34.107Z,6584.00
2018-04-07T08:33:34.072Z,6596.00
2018-04-07T08:34:34.030Z,6552.00
2018-04-07T08:35:34.015Z,6472.00
2018-04-07T08:36:34.010Z,6408.00
2018-04-07T08:37:34.001Z,6388.00
2018-04-07T08:38:33.990Z,6384.00
2018-04-07T08:39:34.038Z,6416.00
2018-04-07T08:40:33.971Z,6464.00
2018-04-07T08:41:33.976Z,6600.00
2018-04-07T08:42:33.957Z,6644.00
2018-04-07T08:43:33.984Z,6636.00
2018-04-07T08:44:34.019Z,6620.00
2018-04-07T08:45:33.931Z,6576.00
2018-04-07T08:46:33.938Z,6564.00
2018-04-07T08:47:33.924Z,6504.00
2018-04-07T08:48:33.902Z,6440.00
2018-04-07T08:49:33.907Z,6408.00
2018-04-07T08:50:33.904Z,6332.00
2018-04-07T08:51:33.891Z,6324.00
2018-04-07T08:52:33.868Z,6288.00
2018-04-07T08:53:33.868Z,6296.00
2018-04-07T08:54:33.866Z,6260.00
2018-04-07T08:55:34.115Z,6304.00
2018-04-07T08:56:33.849Z,6420.00
2018-04-07T08:57:33.828Z,6416.00
2018-04-07T08:58:33.850Z,6292.00
2018-04-07T08:59:33.845Z,6300.00
2018-04-07T09:00:33.810Z,6340.00
2018-04-07T09:01:33.830Z,6488.00
2018-04-07T09:02:33.798Z,6584.00
2018-04-07T09:03:33.787Z,6712.00
2018-04-07T09:04:33.775Z,7212.00
2018-04-07T09:05:33.839Z,8368.00
2018-04-07T09:06:33.765Z,10020.00
2018-04-07T09:07:33.748Z,13812.00
2018-04-07T09:08:33.744Z,19584.00
2018-04-07T09:09:33.736Z,20608.00
2018-04-07T09:10:33.748Z,17120.00
2018-04-07T09:11:33.764Z,16192.00
2018-04-07T09:12:33.741Z,15808.00
2018-04-07T09:13:33.730Z,18304.00
2018-04-07T09:14:33.749Z,13932.00
2018-04-07T09:15:33.689Z,10868.00
2018-04-07T09:16:33.693Z,16448.00
2018-04-07T09:17:33.678Z,21376.00
2018-04-07T09:18:33.688Z,15584.00
2018-04-07T09:19:33.658Z,8796.00
2018-04-07T09:20:33.684Z,7940.00
2018-04-07T09:21:33.644Z,7640.00
2018-04-07T09:22:33.661Z,7372.00
2018-04-07T09:23:33.843Z,7176.00
2018-04-07T09:24:33.639Z,7136.00
2018-04-07T09:25:33.635Z,7244.00
2018-04-07T09:26:33.627Z,7340.00
2018-04-07T09:27:33.605Z,7260.00
2018-04-07T09:28:33.602Z,7276.00
2018-04-07T09:29:33.612Z,7428.00
2018-04-07T09:30:33.602Z,7812.00
2018-04-07T09:31:33.586Z,8020.00
2018-04-07T09:32:33.611Z,8252.00
2018-04-07T09:33:33.572Z,8340.00
2018-04-07T09:34:33.585Z,8348.00
2018-04-07T09:35:33.564Z,8328.00
2018-04-07T09:36:33.558Z,8316.00
2018-04-07T09:37:33.566Z,8504.00
2018-04-07T09:38:33.563Z,8644.00
2018-04-07T09:39:33.577Z,8980.00
2018-04-07T09:40:33.554Z,9076.00
2018-04-07T09:41:33.583Z,9724.00
2018-04-07T09:42:33.526Z,10728.00
2018-04-07T09:43:33.522Z,17952.00
2018-04-07T09:44:33.529Z,33696.00
2018-04-07T09:45:33.581Z,26080.00
2018-04-07T09:46:33.524Z,23648.00
2018-04-07T09:47:33.531Z,25472.00
2018-04-07T09:48:33.512Z,31040.00
2018-04-07T09:49:33.500Z,39200.00
2018-04-07T09:50:33.511Z,34688.00
2018-04-07T09:51:33.490Z,33184.00
2018-04-07T09:52:33.486Z,33696.00
2018-04-07T09:53:33.543Z,39392.00
2018-04-07T09:54:33.487Z,41600.00
2018-04-07T09:55:33.480Z,34144.00
2018-04-07T09:56:33.475Z,23296.00
2018-04-07T09:57:33.490Z,17920.00
2018-04-07T09:58:33.481Z,32160.00
2018-04-07T09:59:33.476Z,36064.00
2018-04-07T10:00:33.479Z,31360.00
2018-04-07T10:01:33.482Z,29184.00
2018-04-07T10:02:33.472Z,26976.00
2018-04-07T10:03:33.467Z,31360.00
2018-04-07T10:04:33.497Z,39392.00
2018-04-07T10:05:33.463Z,26752.00
2018-04-07T10:06:33.450Z,23232.00
2018-04-07T10:07:33.461Z,35328.00
2018-04-07T10:08:33.447Z,36608.00
2018-04-07T10:09:33.445Z,28480.00
2018-04-07T10:10:33.463Z,28928.00
2018-04-07T10:11:33.457Z,28352.00
2018-04-07T10:12:33.436Z,32640.00
2018-04-07T10:13:33.451Z,41376.00
2018-04-07T10:14:33.431Z,54880.00
2018-04-07T10:15:33.445Z,47040.00
2018-04-07T10:16:33.433Z,51328.00
2018-04-07T10:17:33.432Z,51072.00
2018-04-07T10:18:33.408Z,34368.00
2018-04-07T10:19:33.428Z,38496.00
2018-04-07T10:20:33.491Z,52000.00
2018-04-07T10:21:33.420Z,44928.00
2018-04-07T10:22:33.405Z,44320.00
2018-04-07T10:23:33.419Z,45888.00
2018-04-07T10:24:33.411Z,44448.00
2018-04-07T10:25:33.431Z,40928.00
2018-04-07T10:26:33.420Z,39808.00
2018-04-07T10:27:33.418Z,32672.00
2018-04-07T10:28:33.397Z,45760.00
2018-04-07T10:29:33.417Z,44512.00
2018-04-07T10:30:33.410Z,36960.00
2018-04-07T10:31:33.405Z,33984.00
2018-04-07T10:32:33.396Z,40064.00
2018-04-07T10:33:33.409Z,50848.00
2018-04-07T10:34:33.398Z,49056.00
2018-04-07T10:35:33.422Z,44160.00
2018-04-07T10:36:33.463Z,26272.00
2018-04-07T10:37:33.388Z,42400.00
2018-04-07T10:38:33.385Z,36736.00
2018-04-07T10:39:33.407Z,39808.00
2018-04-07T10:40:33.390Z,42688.00
2018-04-07T10:41:33.401Z,39232.00
2018-04-07T10:42:33.442Z,32000.00
2018-04-07T10:43:33.376Z,43744.00
2018-04-07T10:44:33.384Z,56448.00
2018-04-07T10:45:33.380Z,61216.00
2018-04-07T10:46:33.375Z,49664.00
2018-04-07T10:47:33.383Z,47040.00
2018-04-07T10:48:33.422Z,40672.00
2018-04-07T10:49:33.402Z,20736.00
2018-04-07T10:50:33.396Z,29920.00
2018-04-07T10:51:33.386Z,27296.00
2018-04-07T10:52:33.499Z,28576.00
2018-04-07T10:53:34.579Z,30304.00
2018-04-07T10:54:34.524Z,25664.00
2018-04-07T10:55:34.987Z,39360.00
2018-04-07T10:56:33.997Z,21856.00
2018-04-07T10:57:34.085Z,23904.00
2018-04-07T10:58:34.044Z,29760.00
2018-04-07T10:59:34.306Z,12824.00
2018-04-07T11:00:33.381Z,26560.00
2018-04-07T11:01:33.732Z,49792.00
2018-04-07T11:02:33.374Z,51136.00
2018-04-07T11:03:33.414Z,57824.00
2018-04-07T11:04:33.569Z,59136.00
2018-04-07T11:05:33.373Z,57760.00
2018-04-07T11:06:33.378Z,56704.00
2018-04-07T11:07:33.404Z,46624.00
2018-04-07T11:08:33.390Z,28064.00
2018-04-07T11:09:33.380Z,27776.00
2018-04-07T11:10:33.389Z,30784.00
2018-04-07T11:11:33.378Z,22592.00
2018-04-07T11:12:33.390Z,16864.00
2018-04-07T11:13:33.381Z,17344.00
2018-04-07T11:14:33.366Z,13632.00
2018-04-07T11:15:33.417Z,9984.00
2018-04-07T11:16:33.380Z,11172.00
2018-04-07T11:17:33.377Z,18208.00
2018-04-07T11:18:33.373Z,26048.00
2018-04-07T11:19:33.362Z,19584.00
2018-04-07T11:20:33.360Z,17792.00
2018-04-07T11:21:33.391Z,23456.00
2018-04-07T11:22:33.373Z,20896.00
2018-04-07T11:23:33.356Z,20384.00
2018-04-07T11:24:33.394Z,14860.00
2018-04-07T11:25:33.356Z,16896.00
2018-04-07T11:26:33.348Z,27136.00
2018-04-07T11:27:33.379Z,26752.00
2018-04-07T11:28:33.365Z,29504.00
2018-04-07T11:29:33.343Z,31584.00
2018-04-07T11:30:33.360Z,31168.00
2018-04-07T11:31:33.341Z,29248.00
2018-04-07T11:32:33.344Z,29248.00
2018-04-07T11:33:33.408Z,38208.00
2018-04-07T11:34:33.347Z,33344.00
2018-04-07T11:35:33.339Z,17472.00
2018-04-07T11:36:33.332Z,21088.00
2018-04-07T11:37:33.347Z,21536.00
2018-04-07T11:38:34.014Z,32640.00
2018-04-07T11:39:33.331Z,32608.00
2018-04-07T11:40:33.346Z,25728.00
2018-04-07T11:41:33.341Z,26432.00
2018-04-07T11:42:33.340Z,32128.00
2018-04-07T11:43:33.350Z,34432.00
2018-04-07T11:44:33.370Z,26208.00
2018-04-07T11:45:33.344Z,22432.00
2018-04-07T11:46:33.349Z,32544.00
2018-04-07T11:47:33.327Z,43168.00
2018-04-07T11:48:33.322Z,52928.00
2018-04-07T11:49:33.319Z,46112.00
2018-04-07T11:50:33.321Z,42592.00
2018-04-07T11:51:33.396Z,34720.00
2018-04-07T11:52:33.319Z,35552.00
2018-04-07T11:53:33.318Z,34144.00
2018-04-07T11:54:33.328Z,35936.00
2018-04-07T11:55:33.326Z,40672.00
2018-04-07T11:56:33.339Z,50464.00
2018-04-07T11:57:33.360Z,52576.00
2018-04-07T11:58:33.324Z,45952.00
2018-04-07T11:59:33.327Z,53888.00
2018-04-07T12:00:33.326Z,55712.00
2018-04-07T12:01:33.323Z,68224.00
2018-04-07T12:02:33.413Z,79552.00
2018-04-07T12:03:33.334Z,75616.00
2018-04-07T12:04:33.367Z,70624.00
2018-04-07T12:05:33.340Z,77824.00
2018-04-07T12:06:33.340Z,81312.00
2018-04-07T12:07:33.331Z,81504.00
2018-04-07T12:08:33.344Z,82880.00
2018-04-07T12:09:33.376Z,85312.00
2018-04-07T12:10:33.357Z,86496.00
2018-04-07T12:11:33.442Z,82080.00
2018-04-07T12:12:33.359Z,82080.00
2018-04-07T12:13:33.407Z,80352.00
2018-04-07T12:14:33.383Z,81344.00
2018-04-07T12:15:33.369Z,77248.00
2018-04-07T12:16:33.377Z,73472.00
2018-04-07T12:17:33.429Z,74752.00
2018-04-07T12:18:33.400Z,71712.00
2018-04-07T12:19:33.391Z,66112.00
2018-04-07T12:20:33.414Z,61440.00
2018-04-07T12:21:33.421Z,71776.00
2018-04-07T12:22:33.416Z,76704.00
2018-04-07T12:23:33.436Z,78560.00
2018-04-07T12:24:33.431Z,79712.00
2018-04-07T12:25:33.427Z,78944.00
2018-04-07T12:26:33.567Z,76608.00
2018-04-07T12:27:33.456Z,65536.00
2018-04-07T12:28:33.574Z,64800.00
2018-04-07T12:29:33.473Z,74624.00
2018-04-07T12:30:33.464Z,82272.00
2018-04-07T12:31:33.467Z,78144.00
2018-04-07T12:32:33.500Z,71648.00
2018-04-07T12:33:33.506Z,71872.00
2018-04-07T12:34:33.526Z,73792.00
2018-04-07T12:35:33.496Z,85344.00
2018-04-07T12:36:33.522Z,85248.00
2018-04-07T12:37:33.531Z,80672.00
2018-04-07T12:38:33.520Z,71616.00
2018-04-07T12:39:33.629Z,72768.00
2018-04-07T12:40:33.542Z,66208.00
2018-04-07T12:41:33.568Z,53376.00
2018-04-07T12:42:33.552Z,58016.00
2018-04-07T12:43:34.225Z,52544.00
2018-04-07T12:44:33.633Z,46016.00
2018-04-07T12:45:33.634Z,36352.00
2018-04-07T12:46:33.582Z,33472.00
2018-04-07T12:47:33.609Z,33152.00
2018-04-07T12:48:33.618Z,38528.00
2018-04-07T12:49:33.612Z,45376.00
2018-04-07T12:50:33.646Z,61280.00
2018-04-07T12:51:33.646Z,55264.00
2018-04-07T12:52:33.659Z,44960.00
2018-04-07T12:53:33.646Z,38912.00
2018-04-07T12:54:33.643Z,34432.00
2018-04-07T12:55:33.736Z,34208.00
2018-04-07T12:56:33.671Z,33408.00
2018-04-07T12:57:33.693Z,28096.00
2018-04-07T12:58:33.673Z,30752.00
2018-04-07T12:59:33.685Z,17920.00
2018-04-07T13:00:33.688Z,20640.00
2018-04-07T13:01:33.712Z,27520.00
2018-04-07T13:02:33.715Z,49280.00
2018-04-07T13:03:33.721Z,56288.00
2018-04-07T13:04:33.711Z,51552.00
2018-04-07T13:05:33.728Z,53888.00
2018-04-07T13:06:33.745Z,51072.00
2018-04-07T13:07:33.724Z,52096.00
2018-04-07T13:08:33.754Z,47552.00
2018-04-07T13:09:33.770Z,56960.00
2018-04-07T13:10:33.768Z,57056.00
2018-04-07T13:11:33.773Z,53984.00
2018-04-07T13:12:33.767Z,55264.00
2018-04-07T13:13:33.772Z,50720.00
2018-04-07T13:14:33.778Z,44672.00
2018-04-07T13:15:33.789Z,52224.00
2018-04-07T13:16:33.862Z,44640.00
2018-04-07T13:17:33.772Z,42528.00
2018-04-07T13:18:33.785Z,42624.00
2018-04-07T13:19:33.786Z,40928.00
2018-04-07T13:20:33.796Z,43968.00
2018-04-07T13:21:33.795Z,48288.00
2018-04-07T13:22:33.864Z,46880.00
2018-04-07T13:23:33.813Z,47360.00
2018-04-07T13:24:33.824Z,38240.00
2018-04-07T13:25:33.830Z,28640.00
2018-04-07T13:26:33.831Z,34656.00
2018-04-07T13:27:33.862Z,34848.00
2018-04-07T13:28:33.862Z,33280.00
2018-04-07T13:29:33.859Z,28544.00
2018-04-07T13:30:33.854Z,29952.00
2018-04-07T13:31:33.853Z,31680.00
2018-04-07T13:32:33.868Z,34560.00
2018-04-07T13:33:38.527Z,35776.00
2018-04-07T13:34:33.876Z,30432.00
2018-04-07T13:35:33.892Z,23008.00
2018-04-07T13:36:33.899Z,16768.00
2018-04-07T13:37:33.878Z,17760.00
2018-04-07T13:38:33.958Z,19744.00
2018-04-07T13:39:33.897Z,24000.00
2018-04-07T13:40:33.903Z,25888.00
2018-04-07T13:41:33.894Z,32736.00
2018-04-07T13:42:33.906Z,41312.00
2018-04-07T13:43:33.911Z,35872.00
2018-04-07T13:44:33.971Z,27136.00
2018-04-07T13:45:33.922Z,20928.00
2018-04-07T13:46:33.937Z,21280.00
2018-04-07T13:47:33.937Z,22688.00
2018-04-07T13:48:33.922Z,23808.00
2018-04-07T13:49:33.929Z,25280.00
2018-04-07T13:50:33.940Z,25696.00
2018-04-07T13:51:33.931Z,29824.00
2018-04-07T13:52:33.926Z,28064.00
2018-04-07T13:53:33.952Z,33440.00
2018-04-07T13:54:33.974Z,31648.00
2018-04-07T13:55:33.952Z,36480.00
2018-04-07T13:56:33.950Z,35776.00
2018-04-07T13:57:33.954Z,45120.00
2018-04-07T13:58:33.944Z,48768.00
2018-04-07T13:59:34.001Z,50624.00
2018-04-07T14:00:33.994Z,52864.00
2018-04-07T14:01:33.961Z,52096.00
2018-04-07T14:02:33.976Z,51232.00
2018-04-07T14:03:33.980Z,49568.00
2018-04-07T14:04:33.996Z,42720.00
2018-04-07T14:05:33.994Z,41632.00
2018-04-07T14:06:33.998Z,53152.00
2018-04-07T14:07:33.991Z,60896.00
2018-04-07T14:08:33.996Z,64672.00
2018-04-07T14:09:33.990Z,72384.00
2018-04-07T14:10:34.010Z,73504.00
2018-04-07T14:11:33.998Z,68992.00
2018-04-07T14:12:33.999Z,68096.00
2018-04-07T14:13:34.024Z,70656.00
2018-04-07T14:14:34.033Z,73824.00
2018-04-07T14:15:34.035Z,76224.00
2018-04-07T14:16:34.021Z,75200.00
2018-04-07T14:17:34.033Z,70624.00
2018-04-07T14:18:34.040Z,69088.00
2018-04-07T14:19:34.044Z,67744.00
2018-04-07T14:20:34.057Z,56384.00
2018-04-07T14:21:34.068Z,45728.00
2018-04-07T14:22:34.073Z,55392.00
2018-04-07T14:23:34.074Z,64640.00
2018-04-07T14:24:34.078Z,67424.00
2018-04-07T14:25:34.138Z,65600.00
2018-04-07T14:26:34.120Z,64000.00
2018-04-07T14:27:34.101Z,64992.00
2018-04-07T14:28:34.124Z,64448.00
2018-04-07T14:29:34.114Z,62208.00
2018-04-07T14:30:34.122Z,63488.00
2018-04-07T14:31:34.177Z,65568.00
2018-04-07T14:32:34.152Z,66528.00
2018-04-07T14:33:34.143Z,68192.00
2018-04-07T14:34:34.157Z,71584.00
2018-04-07T14:35:34.162Z,73472.00
2018-04-07T14:36:34.201Z,71200.00
2018-04-07T14:37:34.180Z,60096.00
2018-04-07T14:38:34.191Z,51360.00
2018-04-07T14:39:34.199Z,47968.00
2018-04-07T14:40:34.262Z,46208.00
2018-04-07T14:41:34.293Z,43712.00
2018-04-07T14:42:34.242Z,41664.00
2018-04-07T14:43:34.238Z,40064.00
2018-04-07T14:44:34.255Z,38944.00
2018-04-07T14:45:34.270Z,38208.00
2018-04-07T14:46:34.284Z,37824.00
2018-04-07T14:47:34.272Z,36288.00
2018-04-07T14:48:34.314Z,33888.00
2018-04-07T14:49:34.318Z,32544.00
2018-04-07T14:50:34.296Z,35648.00
2018-04-07T14:51:34.313Z,36864.00
2018-04-07T14:52:34.326Z,36256.00